Peetz, Colorado
Current Conditions -  °F | °C
As of 7:53 AM on Sunday 23 Nov 2014 (Local Time) from KSNY Reporting Station
Clear Clear  
Wind Chill: 23°   Ceiling: Unl
Heat Index: 34°   Visibility: 10mi
Dew Point: 16°   Wind: 18mph
Humidity: 48%   Direction: 340°NNW
Pressure: 29.72"   Gusts: NA
Location:  40.96°N, 103.11°W
Report Text: KSNY 231453Z AUTO 34016KT 10SM CLR 01/M09 A2972 RMK AO2 SLP069 T00111089 51018
Loading
Personal Weather Stations






























Interactive Weather Map New forecast layout! Learn more

10-Day Weather Forecast

Advertisements
Track Severe Weather on mobile